sensor_id;sensor_type;location;lat;lon;timestamp;P1;durP1;ratioP1;P2;durP2;ratioP2
17528;SDS011;8882;53.192;8.184;2022-09-09T04:31:06;8.70;;;5.57;;
17528;SDS011;8882;53.192;8.184;2022-09-09T04:33:33;8.23;;;5.97;;
17528;SDS011;8882;53.192;8.184;2022-09-09T04:35:59;9.33;;;6.40;;
17528;SDS011;8882;53.192;8.184;2022-09-09T04:38:25;12.00;;;6.10;;
17528;SDS011;8882;53.192;8.184;2022-09-09T04:40:51;11.90;;;5.93;;
17528;SDS011;8882;53.192;8.184;2022-09-09T04:43:19;7.80;;;5.80;;
17528;SDS011;8882;53.192;8.184;2022-09-09T04:45:49;12.13;;;5.50;;
17528;SDS011;8882;53.192;8.184;2022-09-09T04:48:16;7.07;;;5.53;;
17528;SDS011;8882;53.192;8.184;2022-09-09T04:50:42;15.87;;;5.87;;
17528;SDS011;8882;53.192;8.184;2022-09-09T04:53:08;9.73;;;5.27;;
17528;SDS011;8882;53.192;8.184;2022-09-09T04:55:34;9.50;;;5.50;;
17528;SDS011;8882;53.192;8.184;2022-09-09T04:58:04;10.83;;;5.93;;
17528;SDS011;8882;53.192;8.184;2022-09-09T05:00:30;8.33;;;5.53;;
17528;SDS011;8882;53.192;8.184;2022-09-09T05:02:56;8.10;;;5.07;;
17528;SDS011;8882;53.192;8.184;2022-09-09T05:05:22;6.27;;;4.70;;
17528;SDS011;8882;53.192;8.184;2022-09-09T05:07:47;9.27;;;5.30;;
17528;SDS011;8882;53.192;8.184;2022-09-09T05:10:14;8.80;;;5.00;;
17528;SDS011;8882;53.192;8.184;2022-09-09T05:12:41;7.87;;;5.40;;
17528;SDS011;8882;53.192;8.184;2022-09-09T05:15:07;8.93;;;4.90;;
17528;SDS011;8882;53.192;8.184;2022-09-09T05:17:33;6.00;;;5.10;;
17528;SDS011;8882;53.192;8.184;2022-09-09T05:19:58;5.33;;;4.23;;
17528;SDS011;8882;53.192;8.184;2022-09-09T05:22:24;8.87;;;4.87;;
17528;SDS011;8882;53.192;8.184;2022-09-09T05:24:49;8.40;;;4.97;;
17528;SDS011;8882;53.192;8.184;2022-09-09T05:27:16;9.73;;;4.77;;
17528;SDS011;8882;53.192;8.184;2022-09-09T05:29:44;6.90;;;4.70;;
17528;SDS011;8882;53.192;8.184;2022-09-09T05:32:10;8.73;;;5.00;;
17528;SDS011;8882;53.192;8.184;2022-09-09T05:34:36;7.20;;;4.97;;
17528;SDS011;8882;53.192;8.184;2022-09-09T05:37:02;8.77;;;4.70;;
17528;SDS011;8882;53.192;8.184;2022-09-09T05:39:29;7.10;;;4.70;;
17528;SDS011;8882;53.192;8.184;2022-09-09T05:41:54;6.40;;;4.67;;
17528;SDS011;8882;53.192;8.184;2022-09-09T05:44:20;9.47;;;5.20;;
17528;SDS011;8882;53.192;8.184;2022-09-09T05:46:48;6.80;;;4.93;;
17528;SDS011;8882;53.192;8.184;2022-09-09T05:49:14;7.67;;;4.77;;
17528;SDS011;8882;53.192;8.184;2022-09-09T05:51:40;9.00;;;5.03;;
17528;SDS011;8882;53.192;8.184;2022-09-09T05:54:07;6.20;;;4.90;;
17528;SDS011;8882;53.192;8.184;2022-09-09T05:56:33;6.67;;;4.87;;
17528;SDS011;8882;53.192;8.184;2022-09-09T05:58:59;7.30;;;4.63;;
17528;SDS011;8882;53.192;8.184;2022-09-09T06:01:26;6.47;;;4.67;;
17528;SDS011;8882;53.192;8.184;2022-09-09T06:03:56;7.20;;;4.67;;
17528;SDS011;8882;53.192;8.184;2022-09-09T06:06:23;6.60;;;4.37;;
17528;SDS011;8882;53.192;8.184;2022-09-09T06:08:51;5.40;;;4.40;;
17528;SDS011;8882;53.192;8.184;2022-09-09T06:11:27;4.10;;;3.70;;
17528;SDS011;8882;53.192;8.184;2022-09-09T06:13:56;5.90;;;3.93;;
17528;SDS011;8882;53.192;8.184;2022-09-09T06:16:22;8.37;;;4.07;;
17528;SDS011;8882;53.192;8.184;2022-09-09T06:18:49;4.63;;;4.07;;
17528;SDS011;8882;53.192;8.184;2022-09-09T06:21:16;5.90;;;4.20;;
17528;SDS011;8882;53.192;8.184;2022-09-09T06:23:43;4.93;;;3.67;;
17528;SDS011;8882;53.192;8.184;2022-09-09T06:28:42;5.77;;;3.67;;
17528;SDS011;8882;53.192;8.184;2022-09-09T06:31:10;5.33;;;3.93;;
17528;SDS011;8882;53.192;8.184;2022-09-09T06:33:37;6.07;;;4.00;;
17528;SDS011;8882;53.192;8.184;2022-09-09T06:36:06;5.47;;;3.80;;
17528;SDS011;8882;53.192;8.184;2022-09-09T06:38:36;5.30;;;4.20;;
17528;SDS011;8882;53.192;8.184;2022-09-09T06:41:02;7.60;;;4.03;;
17528;SDS011;8882;53.192;8.184;2022-09-09T06:43:28;6.93;;;3.60;;
17528;SDS011;8882;53.192;8.184;2022-09-09T06:45:58;4.63;;;3.53;;
17528;SDS011;8882;53.192;8.184;2022-09-09T06:48:26;5.33;;;3.47;;
17528;SDS011;8882;53.192;8.184;2022-09-09T06:51:02;4.73;;;3.37;;
17528;SDS011;8882;53.192;8.184;2022-09-09T06:53:29;4.97;;;3.07;;
17528;SDS011;8882;53.192;8.184;2022-09-09T06:55:54;6.20;;;3.73;;
17528;SDS011;8882;53.192;8.184;2022-09-09T06:58:20;4.87;;;3.40;;
17528;SDS011;8882;53.192;8.184;2022-09-09T07:00:47;4.43;;;3.50;;
17528;SDS011;8882;53.192;8.184;2022-09-09T07:03:13;7.37;;;3.57;;
17528;SDS011;8882;53.192;8.184;2022-09-09T07:05:38;6.60;;;3.60;;
17528;SDS011;8882;53.192;8.184;2022-09-09T07:08:04;5.90;;;4.10;;
17528;SDS011;8882;53.192;8.184;2022-09-09T07:10:30;4.77;;;3.50;;
17528;SDS011;8882;53.192;8.184;2022-09-09T07:12:56;4.03;;;3.47;;
17528;SDS011;8882;53.192;8.184;2022-09-09T07:15:21;5.67;;;3.13;;
17528;SDS011;8882;53.192;8.184;2022-09-09T07:17:47;5.80;;;3.73;;
17528;SDS011;8882;53.192;8.184;2022-09-09T07:20:13;5.80;;;4.50;;
17528;SDS011;8882;53.192;8.184;2022-09-09T07:22:40;6.23;;;3.87;;
17528;SDS011;8882;53.192;8.184;2022-09-09T07:25:06;4.90;;;3.37;;
17528;SDS011;8882;53.192;8.184;2022-09-09T07:27:32;9.83;;;3.77;;
17528;SDS011;8882;53.192;8.184;2022-09-09T07:29:58;4.40;;;3.87;;
17528;SDS011;8882;53.192;8.184;2022-09-09T07:32:23;4.27;;;3.67;;
17528;SDS011;8882;53.192;8.184;2022-09-09T07:34:50;6.00;;;3.60;;
17528;SDS011;8882;53.192;8.184;2022-09-09T07:37:16;5.63;;;3.63;;
17528;SDS011;8882;53.192;8.184;2022-09-09T07:39:42;5.47;;;3.67;;
17528;SDS011;8882;53.192;8.184;2022-09-09T07:42:08;4.03;;;3.60;;
17528;SDS011;8882;53.192;8.184;2022-09-09T07:44:36;5.93;;;3.80;;
17528;SDS011;8882;53.192;8.184;2022-09-09T07:47:02;5.07;;;3.40;;
17528;SDS011;8882;53.192;8.184;2022-09-09T07:49:28;8.20;;;4.13;;
17528;SDS011;8882;53.192;8.184;2022-09-09T07:51:53;6.07;;;3.83;;
17528;SDS011;8882;53.192;8.184;2022-09-09T07:54:19;9.07;;;4.70;;
17528;SDS011;8882;53.192;8.184;2022-09-09T07:56:48;6.13;;;4.40;;
17528;SDS011;8882;53.192;8.184;2022-09-09T07:59:14;6.67;;;4.73;;
17528;SDS011;8882;53.192;8.184;2022-09-09T08:01:42;5.43;;;4.13;;
17528;SDS011;8882;53.192;8.184;2022-09-09T08:04:11;5.07;;;4.17;;
17528;SDS011;8882;53.192;8.184;2022-09-09T08:06:40;5.67;;;4.17;;
17528;SDS011;8882;53.192;8.184;2022-09-09T08:09:08;9.50;;;4.10;;
17528;SDS011;8882;53.192;8.184;2022-09-09T08:11:34;5.27;;;4.27;;
17528;SDS011;8882;53.192;8.184;2022-09-09T08:14:01;4.80;;;4.03;;
17528;SDS011;8882;53.192;8.184;2022-09-09T08:16:28;6.13;;;4.33;;
17528;SDS011;8882;53.192;8.184;2022-09-09T08:18:56;9.17;;;4.10;;
17528;SDS011;8882;53.192;8.184;2022-09-09T08:21:23;7.63;;;4.57;;
17528;SDS011;8882;53.192;8.184;2022-09-09T08:23:53;6.93;;;4.10;;
17528;SDS011;8882;53.192;8.184;2022-09-09T08:26:26;6.33;;;4.10;;
17528;SDS011;8882;53.192;8.184;2022-09-09T08:28:54;5.40;;;3.90;;
17528;SDS011;8882;53.192;8.184;2022-09-09T08:31:22;5.13;;;4.00;;
17528;SDS011;8882;53.192;8.184;2022-09-09T08:33:50;6.43;;;3.33;;
17528;SDS011;8882;53.192;8.184;2022-09-09T08:36:19;8.73;;;4.00;;
17528;SDS011;8882;53.192;8.184;2022-09-09T08:38:50;5.33;;;3.47;;
17528;SDS011;8882;53.192;8.184;2022-09-09T08:41:29;5.87;;;3.47;;
17528;SDS011;8882;53.192;8.184;2022-09-09T08:58:14;4.07;;;2.90;;
17528;SDS011;8882;53.192;8.184;2022-09-09T09:00:58;5.37;;;3.20;;
17528;SDS011;8882;53.192;8.184;2022-09-09T09:11:45;5.37;;;2.63;;
17528;SDS011;8882;53.192;8.184;2022-09-09T09:14:25;4.00;;;2.77;;
17528;SDS011;8882;53.192;8.184;2022-09-09T09:19:24;6.27;;;2.40;;
17528;SDS011;8882;53.192;8.184;2022-09-09T09:22:00;7.20;;;2.00;;
17528;SDS011;8882;53.192;8.184;2022-09-09T09:27:18;4.90;;;2.07;;
17528;SDS011;8882;53.192;8.184;2022-09-09T09:29:58;2.17;;;1.90;;
17528;SDS011;8882;53.192;8.184;2022-09-09T09:32:25;2.30;;;1.67;;
17528;SDS011;8882;53.192;8.184;2022-09-09T09:34:55;2.93;;;1.90;;
17528;SDS011;8882;53.192;8.184;2022-09-09T09:37:26;2.73;;;1.83;;
17528;SDS011;8882;53.192;8.184;2022-09-09T09:39:54;3.47;;;1.87;;
17528;SDS011;8882;53.192;8.184;2022-09-09T09:42:20;2.37;;;2.17;;
17528;SDS011;8882;53.192;8.184;2022-09-09T09:44:46;5.30;;;2.17;;
17528;SDS011;8882;53.192;8.184;2022-09-09T09:47:21;3.77;;;2.20;;
17528;SDS011;8882;53.192;8.184;2022-09-09T09:49:55;4.40;;;2.33;;
17528;SDS011;8882;53.192;8.184;2022-09-09T09:52:25;3.97;;;2.27;;
17528;SDS011;8882;53.192;8.184;2022-09-09T09:54:53;2.07;;;1.90;;
17528;SDS011;8882;53.192;8.184;2022-09-09T09:57:22;4.33;;;2.10;;
17528;SDS011;8882;53.192;8.184;2022-09-09T10:00:00;4.07;;;2.10;;
17528;SDS011;8882;53.192;8.184;2022-09-09T10:02:37;3.27;;;2.30;;
17528;SDS011;8882;53.192;8.184;2022-09-09T10:07:34;5.90;;;2.03;;
17528;SDS011;8882;53.192;8.184;2022-09-09T10:10:01;4.70;;;2.13;;
17528;SDS011;8882;53.192;8.184;2022-09-09T10:18:24;2.07;;;1.87;;
17528;SDS011;8882;53.192;8.184;2022-09-09T10:23:52;3.73;;;2.27;;
17528;SDS011;8882;53.192;8.184;2022-09-09T10:37:25;3.23;;;2.40;;
17528;SDS011;8882;53.192;8.184;2022-09-09T10:40:15;2.70;;;1.67;;
17528;SDS011;8882;53.192;8.184;2022-09-09T10:42:55;1.70;;;1.60;;
17528;SDS011;8882;53.192;8.184;2022-09-09T10:45:47;2.13;;;1.85;;
17528;SDS011;8882;53.192;8.184;2022-09-09T10:48:40;1.97;;;1.67;;
17528;SDS011;8882;53.192;8.184;2022-09-09T10:57:00;2.13;;;1.93;;
17528;SDS011;8882;53.192;8.184;2022-09-09T10:59:31;3.30;;;1.93;;
17528;SDS011;8882;53.192;8.184;2022-09-09T11:02:12;5.50;;;2.00;;
17528;SDS011;8882;53.192;8.184;2022-09-09T11:04:42;3.43;;;1.80;;
17528;SDS011;8882;53.192;8.184;2022-09-09T11:07:22;4.60;;;1.83;;
17528;SDS011;8882;53.192;8.184;2022-09-09T11:09:59;2.70;;;1.87;;
17528;SDS011;8882;53.192;8.184;2022-09-09T11:12:31;2.70;;;2.00;;
17528;SDS011;8882;53.192;8.184;2022-09-09T11:15:06;5.17;;;2.10;;
17528;SDS011;8882;53.192;8.184;2022-09-09T11:17:40;2.53;;;1.77;;
17528;SDS011;8882;53.192;8.184;2022-09-09T11:20:12;2.10;;;1.60;;
17528;SDS011;8882;53.192;8.184;2022-09-09T11:22:48;5.47;;;2.00;;
17528;SDS011;8882;53.192;8.184;2022-09-09T11:31:13;6.30;;;1.90;;
17528;SDS011;8882;53.192;8.184;2022-09-09T11:44:38;3.20;;;2.13;;
17528;SDS011;8882;53.192;8.184;2022-09-09T11:47:14;3.63;;;2.47;;
17528;SDS011;8882;53.192;8.184;2022-09-09T11:49:55;5.53;;;2.33;;
17528;SDS011;8882;53.192;8.184;2022-09-09T11:52:44;4.00;;;1.95;;
17528;SDS011;8882;53.192;8.184;2022-09-09T11:57:49;5.22;;;1.95;;
17528;SDS011;8882;53.192;8.184;2022-09-09T12:00:30;2.95;;;2.15;;
17528;SDS011;8882;53.192;8.184;2022-09-09T12:03:38;4.68;;;2.03;;
17528;SDS011;8882;53.192;8.184;2022-09-09T12:09:08;5.80;;;2.20;;
17528;SDS011;8882;53.192;8.184;2022-09-09T12:11:48;6.85;;;2.70;;
17528;SDS011;8882;53.192;8.184;2022-09-09T12:14:21;4.57;;;2.55;;
17528;SDS011;8882;53.192;8.184;2022-09-09T12:19:39;5.63;;;2.70;;
17528;SDS011;8882;53.192;8.184;2022-09-09T12:22:12;2.88;;;2.70;;
17528;SDS011;8882;53.192;8.184;2022-09-09T12:24:51;3.40;;;3.08;;
17528;SDS011;8882;53.192;8.184;2022-09-09T12:27:31;5.28;;;3.00;;
17528;SDS011;8882;53.192;8.184;2022-09-09T12:30:03;14.85;;;3.92;;
17528;SDS011;8882;53.192;8.184;2022-09-09T12:32:34;7.22;;;2.95;;
17528;SDS011;8882;53.192;8.184;2022-09-09T12:35:02;4.22;;;3.10;;
17528;SDS011;8882;53.192;8.184;2022-09-09T12:37:41;4.38;;;3.38;;
17528;SDS011;8882;53.192;8.184;2022-09-09T12:40:23;6.20;;;3.40;;
17528;SDS011;8882;53.192;8.184;2022-09-09T12:42:50;7.78;;;3.80;;
17528;SDS011;8882;53.192;8.184;2022-09-09T12:45:17;8.10;;;3.25;;
17528;SDS011;8882;53.192;8.184;2022-09-09T12:47:51;5.43;;;3.15;;
17528;SDS011;8882;53.192;8.184;2022-09-09T12:50:36;5.22;;;3.10;;
17528;SDS011;8882;53.192;8.184;2022-09-09T12:53:21;3.58;;;3.17;;
17528;SDS011;8882;53.192;8.184;2022-09-09T12:55:52;10.23;;;3.43;;
17528;SDS011;8882;53.192;8.184;2022-09-09T12:58:20;5.10;;;3.65;;
17528;SDS011;8882;53.192;8.184;2022-09-09T13:00:50;5.95;;;4.53;;
17528;SDS011;8882;53.192;8.184;2022-09-09T13:03:18;7.18;;;4.32;;
17528;SDS011;8882;53.192;8.184;2022-09-09T13:05:48;6.80;;;3.77;;
17528;SDS011;8882;53.192;8.184;2022-09-09T13:08:14;5.03;;;4.53;;
17528;SDS011;8882;53.192;8.184;2022-09-09T13:13:23;6.63;;;4.43;;
17528;SDS011;8882;53.192;8.184;2022-09-09T13:15:53;7.10;;;5.00;;
17528;SDS011;8882;53.192;8.184;2022-09-09T13:18:22;4.97;;;4.40;;
17528;SDS011;8882;53.192;8.184;2022-09-09T13:20:51;5.13;;;3.97;;
17528;SDS011;8882;53.192;8.184;2022-09-09T13:23:18;5.20;;;3.77;;
17528;SDS011;8882;53.192;8.184;2022-09-09T13:25:52;4.37;;;3.87;;
17528;SDS011;8882;53.192;8.184;2022-09-09T13:28:26;6.10;;;3.90;;
17528;SDS011;8882;53.192;8.184;2022-09-09T13:30:55;4.93;;;3.70;;
17528;SDS011;8882;53.192;8.184;2022-09-09T13:33:44;4.87;;;3.40;;
17528;SDS011;8882;53.192;8.184;2022-09-09T13:36:10;8.10;;;4.33;;
17528;SDS011;8882;53.192;8.184;2022-09-09T13:38:38;5.63;;;3.97;;
17528;SDS011;8882;53.192;8.184;2022-09-09T13:41:21;5.57;;;3.60;;
17528;SDS011;8882;53.192;8.184;2022-09-09T13:43:49;6.90;;;3.87;;
17528;SDS011;8882;53.192;8.184;2022-09-09T13:46:30;4.00;;;3.57;;
17528;SDS011;8882;53.192;8.184;2022-09-09T13:54:05;6.40;;;4.37;;
17528;SDS011;8882;53.192;8.184;2022-09-09T13:56:34;6.30;;;4.23;;
17528;SDS011;8882;53.192;8.184;2022-09-09T13:59:00;5.33;;;3.87;;
17528;SDS011;8882;53.192;8.184;2022-09-09T14:01:26;5.57;;;4.17;;
17528;SDS011;8882;53.192;8.184;2022-09-09T14:03:52;5.23;;;4.00;;
17528;SDS011;8882;53.192;8.184;2022-09-09T14:06:18;6.13;;;4.13;;
17528;SDS011;8882;53.192;8.184;2022-09-09T14:08:44;8.37;;;3.80;;
17528;SDS011;8882;53.192;8.184;2022-09-09T14:11:11;4.37;;;3.40;;
17528;SDS011;8882;53.192;8.184;2022-09-09T14:13:38;4.90;;;3.10;;
17528;SDS011;8882;53.192;8.184;2022-09-09T14:16:03;2.97;;;2.43;;
17528;SDS011;8882;53.192;8.184;2022-09-09T14:18:29;3.27;;;2.37;;
17528;SDS011;8882;53.192;8.184;2022-09-09T14:20:55;3.20;;;1.93;;
17528;SDS011;8882;53.192;8.184;2022-09-09T14:23:22;6.20;;;2.33;;
17528;SDS011;8882;53.192;8.184;2022-09-09T14:25:47;4.90;;;2.03;;
17528;SDS011;8882;53.192;8.184;2022-09-09T14:28:13;2.17;;;1.97;;
17528;SDS011;8882;53.192;8.184;2022-09-09T14:30:40;4.33;;;2.00;;
17528;SDS011;8882;53.192;8.184;2022-09-09T14:33:07;2.20;;;1.60;;
17528;SDS011;8882;53.192;8.184;2022-09-09T14:35:34;1.97;;;1.77;;
17528;SDS011;8882;53.192;8.184;2022-09-09T14:38:01;1.93;;;1.60;;
17528;SDS011;8882;53.192;8.184;2022-09-09T14:40:27;2.70;;;1.80;;
17528;SDS011;8882;53.192;8.184;2022-09-09T14:42:53;3.43;;;2.17;;
17528;SDS011;8882;53.192;8.184;2022-09-09T14:45:18;3.93;;;2.00;;
17528;SDS011;8882;53.192;8.184;2022-09-09T14:47:46;2.70;;;2.20;;
17528;SDS011;8882;53.192;8.184;2022-09-09T14:50:11;4.27;;;2.10;;
17528;SDS011;8882;53.192;8.184;2022-09-09T14:52:37;3.57;;;2.30;;
17528;SDS011;8882;53.192;8.184;2022-09-09T14:55:03;2.37;;;2.10;;
17528;SDS011;8882;53.192;8.184;2022-09-09T14:57:29;3.80;;;2.10;;
17528;SDS011;8882;53.192;8.184;2022-09-09T14:59:55;3.80;;;1.80;;
17528;SDS011;8882;53.192;8.184;2022-09-09T15:02:21;2.83;;;2.00;;
17528;SDS011;8882;53.192;8.184;2022-09-09T15:04:47;4.07;;;2.17;;
17528;SDS011;8882;53.192;8.184;2022-09-09T15:07:14;4.50;;;2.37;;
17528;SDS011;8882;53.192;8.184;2022-09-09T15:09:41;2.83;;;2.23;;
17528;SDS011;8882;53.192;8.184;2022-09-09T15:12:07;6.07;;;2.37;;
17528;SDS011;8882;53.192;8.184;2022-09-09T15:14:32;2.47;;;2.20;;
17528;SDS011;8882;53.192;8.184;2022-09-09T15:16:58;2.53;;;2.33;;
17528;SDS011;8882;53.192;8.184;2022-09-09T15:19:23;2.27;;;1.97;;
17528;SDS011;8882;53.192;8.184;2022-09-09T15:21:49;3.30;;;2.10;;
17528;SDS011;8882;53.192;8.184;2022-09-09T15:24:14;4.00;;;2.20;;
17528;SDS011;8882;53.192;8.184;2022-09-09T15:26:41;2.00;;;1.90;;
17528;SDS011;8882;53.192;8.184;2022-09-09T15:29:06;1.97;;;1.87;;
17528;SDS011;8882;53.192;8.184;2022-09-09T15:31:33;3.33;;;2.03;;
17528;SDS011;8882;53.192;8.184;2022-09-09T15:33:59;1.90;;;1.80;;
17528;SDS011;8882;53.192;8.184;2022-09-09T15:36:30;4.10;;;2.03;;
17528;SDS011;8882;53.192;8.184;2022-09-09T15:38:59;2.00;;;1.90;;
17528;SDS011;8882;53.192;8.184;2022-09-09T15:41:26;2.13;;;1.40;;
17528;SDS011;8882;53.192;8.184;2022-09-09T15:43:53;3.50;;;2.10;;
17528;SDS011;8882;53.192;8.184;2022-09-09T15:48:57;2.27;;;2.00;;
17528;SDS011;8882;53.192;8.184;2022-09-09T15:51:28;1.80;;;1.70;;
17528;SDS011;8882;53.192;8.184;2022-09-09T15:53:54;2.60;;;1.90;;
17528;SDS011;8882;53.192;8.184;2022-09-09T15:56:21;4.23;;;2.30;;
17528;SDS011;8882;53.192;8.184;2022-09-09T15:58:46;3.90;;;2.10;;
17528;SDS011;8882;53.192;8.184;2022-09-09T16:01:12;2.60;;;1.60;;
17528;SDS011;8882;53.192;8.184;2022-09-09T16:03:38;2.97;;;1.90;;
17528;SDS011;8882;53.192;8.184;2022-09-09T16:06:11;2.27;;;2.07;;
17528;SDS011;8882;53.192;8.184;2022-09-09T16:08:39;2.50;;;2.17;;
17528;SDS011;8882;53.192;8.184;2022-09-09T16:11:11;2.43;;;2.13;;
17528;SDS011;8882;53.192;8.184;2022-09-09T16:13:42;4.20;;;2.00;;
17528;SDS011;8882;53.192;8.184;2022-09-09T16:16:12;4.20;;;2.30;;
17528;SDS011;8882;53.192;8.184;2022-09-09T16:18:48;4.03;;;2.30;;
17528;SDS011;8882;53.192;8.184;2022-09-09T16:21:16;6.13;;;2.20;;
17528;SDS011;8882;53.192;8.184;2022-09-09T16:23:46;2.73;;;1.80;;
17528;SDS011;8882;53.192;8.184;2022-09-09T16:26:14;1.80;;;1.70;;
17528;SDS011;8882;53.192;8.184;2022-09-09T16:28:40;1.70;;;1.60;;
17528;SDS011;8882;53.192;8.184;2022-09-09T16:31:06;3.83;;;2.00;;
17528;SDS011;8882;53.192;8.184;2022-09-09T16:33:33;3.20;;;2.17;;
17528;SDS011;8882;53.192;8.184;2022-09-09T16:36:04;4.27;;;2.07;;
17528;SDS011;8882;53.192;8.184;2022-09-09T16:38:31;2.80;;;2.03;;
17528;SDS011;8882;53.192;8.184;2022-09-09T16:40:59;2.93;;;2.33;;
17528;SDS011;8882;53.192;8.184;2022-09-09T16:43:25;3.47;;;2.53;;
17528;SDS011;8882;53.192;8.184;2022-09-09T16:45:51;4.23;;;2.10;;
17528;SDS011;8882;53.192;8.184;2022-09-09T16:48:16;3.03;;;2.13;;
17528;SDS011;8882;53.192;8.184;2022-09-09T16:50:42;2.53;;;1.80;;
17528;SDS011;8882;53.192;8.184;2022-09-09T16:53:07;2.20;;;2.00;;
17528;SDS011;8882;53.192;8.184;2022-09-09T16:55:37;7.47;;;2.50;;
17528;SDS011;8882;53.192;8.184;2022-09-09T16:58:06;5.37;;;2.03;;
17528;SDS011;8882;53.192;8.184;2022-09-09T17:00:33;3.53;;;1.87;;
17528;SDS011;8882;53.192;8.184;2022-09-09T17:02:59;3.57;;;2.20;;
17528;SDS011;8882;53.192;8.184;2022-09-09T17:05:25;5.60;;;2.13;;
17528;SDS011;8882;53.192;8.184;2022-09-09T17:07:50;3.67;;;1.80;;
17528;SDS011;8882;53.192;8.184;2022-09-09T17:10:16;2.97;;;2.10;;
17528;SDS011;8882;53.192;8.184;2022-09-09T17:12:42;3.60;;;2.30;;
17528;SDS011;8882;53.192;8.184;2022-09-09T17:15:08;4.90;;;2.70;;
17528;SDS011;8882;53.192;8.184;2022-09-09T17:17:33;2.70;;;2.40;;
17528;SDS011;8882;53.192;8.184;2022-09-09T17:19:59;4.90;;;3.03;;
17528;SDS011;8882;53.192;8.184;2022-09-09T17:22:27;5.57;;;3.33;;
17528;SDS011;8882;53.192;8.184;2022-09-09T17:24:53;3.57;;;2.77;;
17528;SDS011;8882;53.192;8.184;2022-09-09T17:27:19;3.67;;;2.97;;
17528;SDS011;8882;53.192;8.184;2022-09-09T17:29:45;4.23;;;2.77;;
17528;SDS011;8882;53.192;8.184;2022-09-09T17:32:11;4.50;;;3.07;;
17528;SDS011;8882;53.192;8.184;2022-09-09T17:34:37;2.83;;;2.60;;
17528;SDS011;8882;53.192;8.184;2022-09-09T17:37:03;5.80;;;2.87;;
17528;SDS011;8882;53.192;8.184;2022-09-09T17:39:30;6.00;;;2.03;;
17528;SDS011;8882;53.192;8.184;2022-09-09T17:41:56;5.30;;;2.57;;
17528;SDS011;8882;53.192;8.184;2022-09-09T17:44:22;2.63;;;2.43;;
17528;SDS011;8882;53.192;8.184;2022-09-09T17:46:47;7.73;;;2.50;;
17528;SDS011;8882;53.192;8.184;2022-09-09T17:49:14;2.37;;;2.17;;
17528;SDS011;8882;53.192;8.184;2022-09-09T17:51:41;2.77;;;2.23;;
17528;SDS011;8882;53.192;8.184;2022-09-09T17:54:09;3.30;;;2.10;;
17528;SDS011;8882;53.192;8.184;2022-09-09T17:56:37;2.50;;;2.30;;
17528;SDS011;8882;53.192;8.184;2022-09-09T17:59:04;3.83;;;2.17;;
17528;SDS011;8882;53.192;8.184;2022-09-09T18:01:33;3.53;;;2.20;;
17528;SDS011;8882;53.192;8.184;2022-09-09T18:04:01;2.20;;;1.90;;
17528;SDS011;8882;53.192;8.184;2022-09-09T18:06:31;3.03;;;1.90;;
17528;SDS011;8882;53.192;8.184;2022-09-09T18:09:02;2.10;;;1.53;;
17528;SDS011;8882;53.192;8.184;2022-09-09T18:11:31;1.53;;;1.43;;
17528;SDS011;8882;53.192;8.184;2022-09-09T18:13:59;4.07;;;1.60;;
17528;SDS011;8882;53.192;8.184;2022-09-09T18:16:27;1.50;;;1.40;;
17528;SDS011;8882;53.192;8.184;2022-09-09T18:18:55;3.07;;;1.70;;
17528;SDS011;8882;53.192;8.184;2022-09-09T18:21:22;1.70;;;1.60;;
17528;SDS011;8882;53.192;8.184;2022-09-09T18:23:50;2.40;;;1.50;;
17528;SDS011;8882;53.192;8.184;2022-09-09T18:26:23;1.77;;;1.60;;
17528;SDS011;8882;53.192;8.184;2022-09-09T18:28:51;1.63;;;1.53;;
17528;SDS011;8882;53.192;8.184;2022-09-09T18:31:19;1.70;;;1.60;;
17528;SDS011;8882;53.192;8.184;2022-09-09T18:33:49;1.70;;;1.60;;
17528;SDS011;8882;53.192;8.184;2022-09-09T18:36:17;1.60;;;1.50;;
17528;SDS011;8882;53.192;8.184;2022-09-09T18:38:48;2.57;;;1.70;;
17528;SDS011;8882;53.192;8.184;2022-09-09T18:41:18;1.80;;;1.70;;
17528;SDS011;8882;53.192;8.184;2022-09-09T18:43:50;4.10;;;1.57;;
17528;SDS011;8882;53.192;8.184;2022-09-09T18:46:19;2.00;;;1.80;;
17528;SDS011;8882;53.192;8.184;2022-09-09T18:48:45;1.93;;;1.70;;
17528;SDS011;8882;53.192;8.184;2022-09-09T18:51:13;1.87;;;1.70;;
17528;SDS011;8882;53.192;8.184;2022-09-09T18:53:40;1.80;;;1.60;;
17528;SDS011;8882;53.192;8.184;2022-09-09T18:56:09;2.30;;;1.77;;
17528;SDS011;8882;53.192;8.184;2022-09-09T18:58:37;4.63;;;1.90;;
17528;SDS011;8882;53.192;8.184;2022-09-09T19:01:05;2.07;;;1.90;;
17528;SDS011;8882;53.192;8.184;2022-09-09T19:03:35;2.30;;;1.70;;
17528;SDS011;8882;53.192;8.184;2022-09-09T19:06:05;1.60;;;1.50;;
17528;SDS011;8882;53.192;8.184;2022-09-09T19:08:40;4.33;;;1.97;;
17528;SDS011;8882;53.192;8.184;2022-09-09T19:11:08;2.20;;;1.70;;
17528;SDS011;8882;53.192;8.184;2022-09-09T19:13:34;1.87;;;1.70;;
17528;SDS011;8882;53.192;8.184;2022-09-09T19:18:32;2.20;;;1.90;;
17528;SDS011;8882;53.192;8.184;2022-09-09T19:21:21;1.93;;;1.50;;
17528;SDS011;8882;53.192;8.184;2022-09-09T19:23:53;1.97;;;1.50;;
17528;SDS011;8882;53.192;8.184;2022-09-09T19:26:20;4.53;;;1.80;;
17528;SDS011;8882;53.192;8.184;2022-09-09T19:28:47;4.63;;;1.63;;
17528;SDS011;8882;53.192;8.184;2022-09-09T19:31:14;3.30;;;1.90;;
17528;SDS011;8882;53.192;8.184;2022-09-09T19:33:42;1.70;;;1.60;;
17528;SDS011;8882;53.192;8.184;2022-09-09T19:36:10;1.90;;;1.70;;
17528;SDS011;8882;53.192;8.184;2022-09-09T19:38:36;2.80;;;1.93;;
17528;SDS011;8882;53.192;8.184;2022-09-09T19:41:06;3.50;;;1.93;;
17528;SDS011;8882;53.192;8.184;2022-09-09T19:43:35;1.70;;;1.60;;
17528;SDS011;8882;53.192;8.184;2022-09-09T19:46:02;1.80;;;1.70;;
17528;SDS011;8882;53.192;8.184;2022-09-09T19:48:30;2.63;;;2.10;;
17528;SDS011;8882;53.192;8.184;2022-09-09T19:51:16;3.80;;;2.00;;
17528;SDS011;8882;53.192;8.184;2022-09-09T19:53:46;2.30;;;2.10;;
17528;SDS011;8882;53.192;8.184;2022-09-09T19:56:18;2.77;;;1.90;;
17528;SDS011;8882;53.192;8.184;2022-09-09T19:58:47;2.07;;;1.93;;
17528;SDS011;8882;53.192;8.184;2022-09-09T20:01:17;2.63;;;2.23;;
17528;SDS011;8882;53.192;8.184;2022-09-09T20:03:44;2.00;;;1.80;;
17528;SDS011;8882;53.192;8.184;2022-09-09T20:06:13;2.50;;;2.30;;
17528;SDS011;8882;53.192;8.184;2022-09-09T20:08:42;3.07;;;2.30;;
17528;SDS011;8882;53.192;8.184;2022-09-09T20:11:10;2.17;;;1.93;;
17528;SDS011;8882;53.192;8.184;2022-09-09T20:13:36;2.60;;;2.13;;
17528;SDS011;8882;53.192;8.184;2022-09-09T20:18:58;2.30;;;2.10;;
17528;SDS011;8882;53.192;8.184;2022-09-09T20:21:27;2.70;;;2.00;;
17528;SDS011;8882;53.192;8.184;2022-09-09T20:23:55;3.67;;;2.37;;
17528;SDS011;8882;53.192;8.184;2022-09-09T20:26:23;3.97;;;2.50;;
17528;SDS011;8882;53.192;8.184;2022-09-09T20:28:50;4.53;;;2.50;;
17528;SDS011;8882;53.192;8.184;2022-09-09T20:31:27;2.33;;;2.13;;
17528;SDS011;8882;53.192;8.184;2022-09-09T20:33:54;2.03;;;1.90;;
17528;SDS011;8882;53.192;8.184;2022-09-09T20:36:22;2.50;;;2.30;;
17528;SDS011;8882;53.192;8.184;2022-09-09T20:38:52;3.30;;;2.70;;
17528;SDS011;8882;53.192;8.184;2022-09-09T20:41:19;2.67;;;2.23;;
17528;SDS011;8882;53.192;8.184;2022-09-09T20:43:47;2.17;;;1.97;;
17528;SDS011;8882;53.192;8.184;2022-09-09T20:46:16;4.93;;;2.63;;
17528;SDS011;8882;53.192;8.184;2022-09-09T20:48:42;4.27;;;2.40;;
17528;SDS011;8882;53.192;8.184;2022-09-09T20:51:12;2.97;;;2.70;;
17528;SDS011;8882;53.192;8.184;2022-09-09T20:53:40;3.53;;;2.70;;
17528;SDS011;8882;53.192;8.184;2022-09-09T20:56:06;3.47;;;2.60;;
17528;SDS011;8882;53.192;8.184;2022-09-09T20:58:33;2.67;;;2.37;;
